sensor_id;sensor_type;location;lat;lon;timestamp;temperature;humidity
63537;DHT22;49686;51.880;5.632;2023-04-01T00:01:21;7.20;99.90
63537;DHT22;49686;51.880;5.632;2023-04-01T00:03:48;7.20;99.90
63537;DHT22;49686;51.880;5.632;2023-04-01T00:06:17;7.30;99.90
63537;DHT22;49686;51.880;5.632;2023-04-01T00:08:44;7.30;99.90
63537;DHT22;49686;51.880;5.632;2023-04-01T00:11:12;7.30;99.90
63537;DHT22;49686;51.880;5.632;2023-04-01T00:13:38;7.30;99.90
63537;DHT22;49686;51.880;5.632;2023-04-01T00:16:07;7.30;99.90
63537;DHT22;49686;51.880;5.632;2023-04-01T00:18:48;7.30;99.90
63537;DHT22;49686;51.880;5.632;2023-04-01T00:21:15;7.30;99.90
63537;DHT22;49686;51.880;5.632;2023-04-01T00:23:42;7.30;99.90
63537;DHT22;49686;51.880;5.632;2023-04-01T00:26:09;7.30;99.90
63537;DHT22;49686;51.880;5.632;2023-04-01T00:28:36;7.30;99.90
63537;DHT22;49686;51.880;5.632;2023-04-01T00:31:05;7.30;99.90
63537;DHT22;49686;51.880;5.632;2023-04-01T00:33:31;7.40;99.90
63537;DHT22;49686;51.880;5.632;2023-04-01T00:36:07;7.40;99.90
63537;DHT22;49686;51.880;5.632;2023-04-01T00:38:34;7.40;99.90
63537;DHT22;49686;51.880;5.632;2023-04-01T00:41:01;7.40;99.90
63537;DHT22;49686;51.880;5.632;2023-04-01T00:43:28;7.40;99.90
63537;DHT22;49686;51.880;5.632;2023-04-01T00:45:54;7.50;99.90
63537;DHT22;49686;51.880;5.632;2023-04-01T00:48:23;7.50;99.90
63537;DHT22;49686;51.880;5.632;2023-04-01T00:50:55;7.50;99.90
63537;DHT22;49686;51.880;5.632;2023-04-01T00:53:26;7.50;99.90
63537;DHT22;49686;51.880;5.632;2023-04-01T00:55:58;7.50;99.90
63537;DHT22;49686;51.880;5.632;2023-04-01T00:58:27;7.50;99.90
63537;DHT22;49686;51.880;5.632;2023-04-01T01:00:58;7.50;99.90
63537;DHT22;49686;51.880;5.632;2023-04-01T01:03:25;7.50;99.90
63537;DHT22;49686;51.880;5.632;2023-04-01T01:06:11;7.50;99.90
63537;DHT22;49686;51.880;5.632;2023-04-01T01:08:52;7.50;99.90
63537;DHT22;49686;51.880;5.632;2023-04-01T01:11:29;7.50;99.90
63537;DHT22;49686;51.880;5.632;2023-04-01T01:14:18;7.50;99.90
63537;DHT22;49686;51.880;5.632;2023-04-01T01:16:51;7.40;99.90
63537;DHT22;49686;51.880;5.632;2023-04-01T01:19:41;7.40;99.90
63537;DHT22;49686;51.880;5.632;2023-04-01T01:22:33;7.40;99.90
63537;DHT22;49686;51.880;5.632;2023-04-01T01:25:24;7.40;99.90
63537;DHT22;49686;51.880;5.632;2023-04-01T01:27:58;7.40;99.90
63537;DHT22;49686;51.880;5.632;2023-04-01T01:30:37;7.40;99.90
63537;DHT22;49686;51.880;5.632;2023-04-01T01:33:17;7.40;99.90
63537;DHT22;49686;51.880;5.632;2023-04-01T01:35:50;7.30;99.90
63537;DHT22;49686;51.880;5.632;2023-04-01T01:38:21;7.30;99.90
63537;DHT22;49686;51.880;5.632;2023-04-01T01:40:50;7.30;99.90
63537;DHT22;49686;51.880;5.632;2023-04-01T01:43:21;7.30;99.90
63537;DHT22;49686;51.880;5.632;2023-04-01T01:45:52;7.20;99.90
63537;DHT22;49686;51.880;5.632;2023-04-01T01:48:19;7.30;99.90
63537;DHT22;49686;51.880;5.632;2023-04-01T01:50:50;7.30;99.90
63537;DHT22;49686;51.880;5.632;2023-04-01T01:53:17;7.30;99.90
63537;DHT22;49686;51.880;5.632;2023-04-01T01:55:45;7.20;99.90
63537;DHT22;49686;51.880;5.632;2023-04-01T01:58:16;7.20;99.90
63537;DHT22;49686;51.880;5.632;2023-04-01T02:00:48;7.20;99.90
63537;DHT22;49686;51.880;5.632;2023-04-01T02:03:17;7.20;99.90
63537;DHT22;49686;51.880;5.632;2023-04-01T02:05:46;7.20;99.90
63537;DHT22;49686;51.880;5.632;2023-04-01T02:08:18;7.20;99.90
63537;DHT22;49686;51.880;5.632;2023-04-01T02:10:52;7.20;99.90
63537;DHT22;49686;51.880;5.632;2023-04-01T02:13:24;7.10;99.90
63537;DHT22;49686;51.880;5.632;2023-04-01T02:15:55;7.10;99.90
63537;DHT22;49686;51.880;5.632;2023-04-01T02:18:26;7.10;99.90
63537;DHT22;49686;51.880;5.632;2023-04-01T02:20:54;7.10;99.90
63537;DHT22;49686;51.880;5.632;2023-04-01T02:23:24;7.10;99.90
63537;DHT22;49686;51.880;5.632;2023-04-01T02:25:51;7.10;99.90
63537;DHT22;49686;51.880;5.632;2023-04-01T02:28:19;7.10;99.90
63537;DHT22;49686;51.880;5.632;2023-04-01T02:30:47;7.10;99.90
63537;DHT22;49686;51.880;5.632;2023-04-01T02:33:16;7.00;99.90
63537;DHT22;49686;51.880;5.632;2023-04-01T02:35:43;7.00;99.90
63537;DHT22;49686;51.880;5.632;2023-04-01T02:38:10;7.00;99.90
63537;DHT22;49686;51.880;5.632;2023-04-01T02:40:47;7.00;99.90
63537;DHT22;49686;51.880;5.632;2023-04-01T02:43:14;6.90;99.90
63537;DHT22;49686;51.880;5.632;2023-04-01T02:45:42;7.00;99.90
63537;DHT22;49686;51.880;5.632;2023-04-01T02:48:09;6.90;99.90
63537;DHT22;49686;51.880;5.632;2023-04-01T02:50:36;6.90;99.90
63537;DHT22;49686;51.880;5.632;2023-04-01T02:53:03;6.90;99.90
63537;DHT22;49686;51.880;5.632;2023-04-01T02:55:29;6.90;99.90
63537;DHT22;49686;51.880;5.632;2023-04-01T02:57:58;6.90;99.90
63537;DHT22;49686;51.880;5.632;2023-04-01T03:00:26;6.90;99.90
63537;DHT22;49686;51.880;5.632;2023-04-01T03:02:53;6.90;99.90
63537;DHT22;49686;51.880;5.632;2023-04-01T03:05:20;6.90;99.90
63537;DHT22;49686;51.880;5.632;2023-04-01T03:07:47;6.90;99.90
63537;DHT22;49686;51.880;5.632;2023-04-01T03:10:14;6.90;99.90
63537;DHT22;49686;51.880;5.632;2023-04-01T03:12:44;6.90;99.90
63537;DHT22;49686;51.880;5.632;2023-04-01T03:15:12;6.90;99.90
63537;DHT22;49686;51.880;5.632;2023-04-01T03:17:40;6.90;99.90
63537;DHT22;49686;51.880;5.632;2023-04-01T03:20:09;6.90;99.90
63537;DHT22;49686;51.880;5.632;2023-04-01T03:22:36;6.90;99.90
63537;DHT22;49686;51.880;5.632;2023-04-01T03:25:03;6.90;99.90
63537;DHT22;49686;51.880;5.632;2023-04-01T03:27:30;6.90;99.90
63537;DHT22;49686;51.880;5.632;2023-04-01T03:29:57;6.90;99.90
63537;DHT22;49686;51.880;5.632;2023-04-01T03:32:25;6.90;99.90
63537;DHT22;49686;51.880;5.632;2023-04-01T03:34:52;6.90;99.90
63537;DHT22;49686;51.880;5.632;2023-04-01T03:37:19;6.90;99.90
63537;DHT22;49686;51.880;5.632;2023-04-01T03:39:46;6.90;99.90
63537;DHT22;49686;51.880;5.632;2023-04-01T03:42:13;6.90;99.90
63537;DHT22;49686;51.880;5.632;2023-04-01T03:44:40;6.90;99.90
63537;DHT22;49686;51.880;5.632;2023-04-01T03:47:07;6.90;99.90
63537;DHT22;49686;51.880;5.632;2023-04-01T03:49:36;6.90;99.90
63537;DHT22;49686;51.880;5.632;2023-04-01T03:52:03;6.90;99.90
63537;DHT22;49686;51.880;5.632;2023-04-01T03:54:30;6.80;99.90
63537;DHT22;49686;51.880;5.632;2023-04-01T03:56:57;6.80;99.90
63537;DHT22;49686;51.880;5.632;2023-04-01T03:59:24;6.80;99.90
63537;DHT22;49686;51.880;5.632;2023-04-01T04:01:50;6.80;99.90
63537;DHT22;49686;51.880;5.632;2023-04-01T04:04:17;6.80;99.90
63537;DHT22;49686;51.880;5.632;2023-04-01T04:06:45;6.70;99.90
63537;DHT22;49686;51.880;5.632;2023-04-01T04:09:12;6.70;99.90
63537;DHT22;49686;51.880;5.632;2023-04-01T04:11:39;6.70;99.90
63537;DHT22;49686;51.880;5.632;2023-04-01T04:14:06;6.70;99.90
63537;DHT22;49686;51.880;5.632;2023-04-01T04:16:35;6.70;99.90
63537;DHT22;49686;51.880;5.632;2023-04-01T04:19:02;6.70;99.90
63537;DHT22;49686;51.880;5.632;2023-04-01T04:21:29;6.70;99.90
63537;DHT22;49686;51.880;5.632;2023-04-01T04:23:58;6.70;99.90
63537;DHT22;49686;51.880;5.632;2023-04-01T04:26:25;6.70;99.90
63537;DHT22;49686;51.880;5.632;2023-04-01T04:28:52;6.70;99.90
63537;DHT22;49686;51.880;5.632;2023-04-01T04:31:20;6.70;99.90
63537;DHT22;49686;51.880;5.632;2023-04-01T04:33:47;6.70;99.90
63537;DHT22;49686;51.880;5.632;2023-04-01T04:36:14;6.70;99.90
63537;DHT22;49686;51.880;5.632;2023-04-01T04:38:42;6.70;99.90
63537;DHT22;49686;51.880;5.632;2023-04-01T04:41:10;6.70;99.90
63537;DHT22;49686;51.880;5.632;2023-04-01T04:43:37;6.70;99.90
63537;DHT22;49686;51.880;5.632;2023-04-01T04:46:05;6.70;99.90
63537;DHT22;49686;51.880;5.632;2023-04-01T04:48:34;6.70;99.90
63537;DHT22;49686;51.880;5.632;2023-04-01T04:51:01;6.70;99.90
63537;DHT22;49686;51.880;5.632;2023-04-01T04:53:28;6.70;99.90
63537;DHT22;49686;51.880;5.632;2023-04-01T04:55:55;6.70;99.90
63537;DHT22;49686;51.880;5.632;2023-04-01T04:58:23;6.70;99.90
63537;DHT22;49686;51.880;5.632;2023-04-01T05:00:50;6.70;99.90
63537;DHT22;49686;51.880;5.632;2023-04-01T05:03:16;6.70;99.90
63537;DHT22;49686;51.880;5.632;2023-04-01T05:05:49;6.70;99.90
63537;DHT22;49686;51.880;5.632;2023-04-01T05:08:16;6.80;99.90
63537;DHT22;49686;51.880;5.632;2023-04-01T05:10:43;6.80;99.90
63537;DHT22;49686;51.880;5.632;2023-04-01T05:13:10;6.80;99.90
63537;DHT22;49686;51.880;5.632;2023-04-01T05:15:38;6.80;99.90
63537;DHT22;49686;51.880;5.632;2023-04-01T05:18:05;6.90;99.90
63537;DHT22;49686;51.880;5.632;2023-04-01T05:20:32;6.90;99.90
63537;DHT22;49686;51.880;5.632;2023-04-01T05:22:59;6.90;99.90
63537;DHT22;49686;51.880;5.632;2023-04-01T05:25:27;7.00;99.90
63537;DHT22;49686;51.880;5.632;2023-04-01T05:27:53;7.00;99.90
63537;DHT22;49686;51.880;5.632;2023-04-01T05:30:20;7.10;99.90
63537;DHT22;49686;51.880;5.632;2023-04-01T05:32:48;7.10;99.90
63537;DHT22;49686;51.880;5.632;2023-04-01T05:35:15;7.10;99.90
63537;DHT22;49686;51.880;5.632;2023-04-01T05:37:42;7.20;99.90
63537;DHT22;49686;51.880;5.632;2023-04-01T05:40:10;7.20;99.90
63537;DHT22;49686;51.880;5.632;2023-04-01T05:42:37;7.20;99.90
63537;DHT22;49686;51.880;5.632;2023-04-01T05:45:05;7.20;99.90
63537;DHT22;49686;51.880;5.632;2023-04-01T05:47:32;7.20;99.90
63537;DHT22;49686;51.880;5.632;2023-04-01T05:50:00;7.20;99.90
63537;DHT22;49686;51.880;5.632;2023-04-01T05:52:27;7.30;99.90
63537;DHT22;49686;51.880;5.632;2023-04-01T05:54:54;7.20;99.90
63537;DHT22;49686;51.880;5.632;2023-04-01T05:57:21;7.20;99.90
63537;DHT22;49686;51.880;5.632;2023-04-01T05:59:48;7.20;99.90
63537;DHT22;49686;51.880;5.632;2023-04-01T06:02:17;7.30;99.90
63537;DHT22;49686;51.880;5.632;2023-04-01T06:04:44;7.30;99.90
63537;DHT22;49686;51.880;5.632;2023-04-01T06:07:14;7.30;99.90
63537;DHT22;49686;51.880;5.632;2023-04-01T06:09:42;7.30;99.90
63537;DHT22;49686;51.880;5.632;2023-04-01T06:12:33;7.40;99.90
63537;DHT22;49686;51.880;5.632;2023-04-01T06:15:17;7.40;99.90
63537;DHT22;49686;51.880;5.632;2023-04-01T06:18:03;7.40;99.90
63537;DHT22;49686;51.880;5.632;2023-04-01T06:20:39;7.40;99.90
63537;DHT22;49686;51.880;5.632;2023-04-01T06:23:22;7.40;99.90
63537;DHT22;49686;51.880;5.632;2023-04-01T06:26:13;7.50;99.90
63537;DHT22;49686;51.880;5.632;2023-04-01T06:31:50;7.40;99.90
63537;DHT22;49686;51.880;5.632;2023-04-01T06:34:32;7.50;99.90
63537;DHT22;49686;51.880;5.632;2023-04-01T06:37:15;7.40;99.90
63537;DHT22;49686;51.880;5.632;2023-04-01T06:40:12;7.40;99.90
63537;DHT22;49686;51.880;5.632;2023-04-01T06:42:56;7.40;99.90
63537;DHT22;49686;51.880;5.632;2023-04-01T06:45:34;7.50;99.90
63537;DHT22;49686;51.880;5.632;2023-04-01T06:48:19;7.50;99.90
63537;DHT22;49686;51.880;5.632;2023-04-01T06:50:54;7.50;99.90
63537;DHT22;49686;51.880;5.632;2023-04-01T06:53:27;7.50;99.90
63537;DHT22;49686;51.880;5.632;2023-04-01T06:56:02;7.40;99.90
63537;DHT22;49686;51.880;5.632;2023-04-01T06:58:33;7.40;99.90
63537;DHT22;49686;51.880;5.632;2023-04-01T07:01:03;7.40;99.90
63537;DHT22;49686;51.880;5.632;2023-04-01T07:03:33;7.40;99.90
63537;DHT22;49686;51.880;5.632;2023-04-01T07:06:03;7.40;99.90
63537;DHT22;49686;51.880;5.632;2023-04-01T07:08:34;7.40;99.90
63537;DHT22;49686;51.880;5.632;2023-04-01T07:11:05;7.40;99.90
63537;DHT22;49686;51.880;5.632;2023-04-01T07:13:36;7.40;99.90
63537;DHT22;49686;51.880;5.632;2023-04-01T07:16:11;7.40;99.90
63537;DHT22;49686;51.880;5.632;2023-04-01T07:18:42;7.40;99.90
63537;DHT22;49686;51.880;5.632;2023-04-01T07:21:23;7.40;99.90
63537;DHT22;49686;51.880;5.632;2023-04-01T07:23:54;7.40;99.90
63537;DHT22;49686;51.880;5.632;2023-04-01T07:26:24;7.40;99.90
63537;DHT22;49686;51.880;5.632;2023-04-01T07:28:52;7.50;99.90
63537;DHT22;49686;51.880;5.632;2023-04-01T07:31:25;7.50;99.90
63537;DHT22;49686;51.880;5.632;2023-04-01T07:34:03;7.40;99.90
63537;DHT22;49686;51.880;5.632;2023-04-01T07:36:35;7.40;99.90
63537;DHT22;49686;51.880;5.632;2023-04-01T07:39:13;7.40;99.90
63537;DHT22;49686;51.880;5.632;2023-04-01T07:41:51;7.40;99.90
63537;DHT22;49686;51.880;5.632;2023-04-01T07:44:25;7.50;99.90
63537;DHT22;49686;51.880;5.632;2023-04-01T07:47:05;7.50;99.90
63537;DHT22;49686;51.880;5.632;2023-04-01T07:49:40;7.50;99.90
63537;DHT22;49686;51.880;5.632;2023-04-01T07:52:15;7.50;99.90
63537;DHT22;49686;51.880;5.632;2023-04-01T07:54:46;7.50;99.90
63537;DHT22;49686;51.880;5.632;2023-04-01T07:57:19;7.50;99.90
63537;DHT22;49686;51.880;5.632;2023-04-01T07:59:58;7.60;99.90
63537;DHT22;49686;51.880;5.632;2023-04-01T08:02:34;7.60;99.90
63537;DHT22;49686;51.880;5.632;2023-04-01T08:05:14;7.60;99.90
63537;DHT22;49686;51.880;5.632;2023-04-01T08:07:50;7.60;99.90
63537;DHT22;49686;51.880;5.632;2023-04-01T08:10:23;7.60;99.90
63537;DHT22;49686;51.880;5.632;2023-04-01T08:13:02;7.60;99.90
63537;DHT22;49686;51.880;5.632;2023-04-01T08:15:37;7.70;99.90
63537;DHT22;49686;51.880;5.632;2023-04-01T08:18:13;7.70;99.90
63537;DHT22;49686;51.880;5.632;2023-04-01T08:20:45;7.70;99.90
63537;DHT22;49686;51.880;5.632;2023-04-01T08:23:16;7.80;99.90
63537;DHT22;49686;51.880;5.632;2023-04-01T08:25:48;7.80;99.90
63537;DHT22;49686;51.880;5.632;2023-04-01T08:28:22;7.80;99.90
63537;DHT22;49686;51.880;5.632;2023-04-01T08:30:53;8.00;99.90
63537;DHT22;49686;51.880;5.632;2023-04-01T08:33:24;8.00;99.90
63537;DHT22;49686;51.880;5.632;2023-04-01T08:35:56;7.90;99.90
63537;DHT22;49686;51.880;5.632;2023-04-01T08:38:29;8.00;99.90
63537;DHT22;49686;51.880;5.632;2023-04-01T08:40:59;7.90;99.90
63537;DHT22;49686;51.880;5.632;2023-04-01T08:43:40;8.00;99.90
63537;DHT22;49686;51.880;5.632;2023-04-01T08:46:35;8.10;99.90
63537;DHT22;49686;51.880;5.632;2023-04-01T08:49:17;8.10;99.90
63537;DHT22;49686;51.880;5.632;2023-04-01T08:52:00;8.10;99.90
63537;DHT22;49686;51.880;5.632;2023-04-01T08:54:42;8.10;99.90
63537;DHT22;49686;51.880;5.632;2023-04-01T08:57:15;8.10;99.90
63537;DHT22;49686;51.880;5.632;2023-04-01T09:00:01;8.00;99.90
63537;DHT22;49686;51.880;5.632;2023-04-01T09:02:59;8.10;99.90
63537;DHT22;49686;51.880;5.632;2023-04-01T09:05:39;8.00;99.90
63537;DHT22;49686;51.880;5.632;2023-04-01T09:08:25;8.00;99.90
63537;DHT22;49686;51.880;5.632;2023-04-01T09:11:06;8.10;99.90
63537;DHT22;49686;51.880;5.632;2023-04-01T09:13:52;8.10;99.90
63537;DHT22;49686;51.880;5.632;2023-04-01T09:16:41;8.00;99.90
63537;DHT22;49686;51.880;5.632;2023-04-01T09:19:21;8.20;99.90
63537;DHT22;49686;51.880;5.632;2023-04-01T09:22:22;8.00;99.90
63537;DHT22;49686;51.880;5.632;2023-04-01T09:25:12;7.90;99.90
63537;DHT22;49686;51.880;5.632;2023-04-01T09:27:45;7.90;99.90
63537;DHT22;49686;51.880;5.632;2023-04-01T09:33:42;8.00;99.90
63537;DHT22;49686;51.880;5.632;2023-04-01T09:36:21;8.10;99.90
63537;DHT22;49686;51.880;5.632;2023-04-01T09:38:56;7.90;99.90
63537;DHT22;49686;51.880;5.632;2023-04-01T09:41:29;8.00;99.90
63537;DHT22;49686;51.880;5.632;2023-04-01T09:44:02;8.00;99.90
63537;DHT22;49686;51.880;5.632;2023-04-01T09:46:39;8.00;99.90
63537;DHT22;49686;51.880;5.632;2023-04-01T09:49:19;7.90;99.90
63537;DHT22;49686;51.880;5.632;2023-04-01T09:52:00;8.00;99.90
63537;DHT22;49686;51.880;5.632;2023-04-01T09:54:41;8.00;99.90
63537;DHT22;49686;51.880;5.632;2023-04-01T10:00:39;8.00;99.90
63537;DHT22;49686;51.880;5.632;2023-04-01T10:06:36;8.10;99.90
63537;DHT22;49686;51.880;5.632;2023-04-01T10:15:25;8.50;99.90
63537;DHT22;49686;51.880;5.632;2023-04-01T10:18:24;8.70;99.90
63537;DHT22;49686;51.880;5.632;2023-04-01T10:21:07;8.80;99.90
63537;DHT22;49686;51.880;5.632;2023-04-01T10:24:10;8.70;99.90
63537;DHT22;49686;51.880;5.632;2023-04-01T10:27:06;8.70;99.90
63537;DHT22;49686;51.880;5.632;2023-04-01T10:32:57;8.80;99.90
63537;DHT22;49686;51.880;5.632;2023-04-01T10:35:58;8.90;99.90
63537;DHT22;49686;51.880;5.632;2023-04-01T10:38:49;8.90;99.90
63537;DHT22;49686;51.880;5.632;2023-04-01T10:50:16;8.90;99.90
63537;DHT22;49686;51.880;5.632;2023-04-01T10:53:10;8.70;99.90
63537;DHT22;49686;51.880;5.632;2023-04-01T11:08:41;8.80;99.90
63537;DHT22;49686;51.880;5.632;2023-04-01T11:11:56;9.40;99.90
63537;DHT22;49686;51.880;5.632;2023-04-01T11:14:42;10.10;99.90
63537;DHT22;49686;51.880;5.632;2023-04-01T11:17:33;10.00;99.90
63537;DHT22;49686;51.880;5.632;2023-04-01T11:23:28;10.70;99.90
63537;DHT22;49686;51.880;5.632;2023-04-01T11:26:06;11.40;99.90
63537;DHT22;49686;51.880;5.632;2023-04-01T11:29:09;10.70;99.90
63537;DHT22;49686;51.880;5.632;2023-04-01T11:31:50;11.20;99.90
63537;DHT22;49686;51.880;5.632;2023-04-01T11:34:37;10.70;99.90
63537;DHT22;49686;51.880;5.632;2023-04-01T11:37:16;10.40;99.90
63537;DHT22;49686;51.880;5.632;2023-04-01T11:39:57;9.90;99.90
63537;DHT22;49686;51.880;5.632;2023-04-01T11:42:28;9.60;99.90
63537;DHT22;49686;51.880;5.632;2023-04-01T11:45:07;9.20;99.90
63537;DHT22;49686;51.880;5.632;2023-04-01T11:47:54;9.00;99.90
63537;DHT22;49686;51.880;5.632;2023-04-01T11:50:34;8.90;99.90
63537;DHT22;49686;51.880;5.632;2023-04-01T11:53:19;8.80;99.90
63537;DHT22;49686;51.880;5.632;2023-04-01T11:55:56;8.90;99.90
63537;DHT22;49686;51.880;5.632;2023-04-01T11:58:38;8.90;99.90
63537;DHT22;49686;51.880;5.632;2023-04-01T12:01:23;9.10;99.90
63537;DHT22;49686;51.880;5.632;2023-04-01T12:04:04;9.30;99.90
63537;DHT22;49686;51.880;5.632;2023-04-01T12:06:44;9.50;99.90
63537;DHT22;49686;51.880;5.632;2023-04-01T12:09:22;9.60;99.90
63537;DHT22;49686;51.880;5.632;2023-04-01T12:12:01;9.90;99.90
63537;DHT22;49686;51.880;5.632;2023-04-01T12:14:38;9.90;99.90
63537;DHT22;49686;51.880;5.632;2023-04-01T12:17:13;9.70;99.90
63537;DHT22;49686;51.880;5.632;2023-04-01T12:19:47;9.50;99.90
63537;DHT22;49686;51.880;5.632;2023-04-01T12:22:28;9.20;99.90
63537;DHT22;49686;51.880;5.632;2023-04-01T12:25:14;9.10;99.90
63537;DHT22;49686;51.880;5.632;2023-04-01T12:27:49;9.00;99.90
63537;DHT22;49686;51.880;5.632;2023-04-01T12:30:42;8.90;99.90
63537;DHT22;49686;51.880;5.632;2023-04-01T12:33:24;8.90;99.90
63537;DHT22;49686;51.880;5.632;2023-04-01T12:36:01;9.10;99.90
63537;DHT22;49686;51.880;5.632;2023-04-01T12:38:39;9.10;99.90
63537;DHT22;49686;51.880;5.632;2023-04-01T12:41:12;9.20;99.90
63537;DHT22;49686;51.880;5.632;2023-04-01T12:44:33;9.20;99.90
63537;DHT22;49686;51.880;5.632;2023-04-01T12:47:16;9.30;99.90
63537;DHT22;49686;51.880;5.632;2023-04-01T12:50:23;9.30;99.90
63537;DHT22;49686;51.880;5.632;2023-04-01T12:53:03;9.40;99.90
63537;DHT22;49686;51.880;5.632;2023-04-01T12:55:40;9.50;99.90
63537;DHT22;49686;51.880;5.632;2023-04-01T13:01:23;9.40;99.90
63537;DHT22;49686;51.880;5.632;2023-04-01T13:07:00;9.50;99.90
63537;DHT22;49686;51.880;5.632;2023-04-01T13:09:39;9.40;99.90
63537;DHT22;49686;51.880;5.632;2023-04-01T13:12:26;9.50;99.90
63537;DHT22;49686;51.880;5.632;2023-04-01T13:15:21;9.70;99.90
63537;DHT22;49686;51.880;5.632;2023-04-01T13:17:53;9.70;99.90
63537;DHT22;49686;51.880;5.632;2023-04-01T13:20:34;9.80;99.90
63537;DHT22;49686;51.880;5.632;2023-04-01T13:23:11;9.60;99.90
63537;DHT22;49686;51.880;5.632;2023-04-01T13:25:47;9.40;99.90
63537;DHT22;49686;51.880;5.632;2023-04-01T13:28:22;9.60;99.90
63537;DHT22;49686;51.880;5.632;2023-04-01T13:30:55;9.70;99.90
63537;DHT22;49686;51.880;5.632;2023-04-01T13:33:29;9.90;99.90
63537;DHT22;49686;51.880;5.632;2023-04-01T13:36:07;9.90;99.90
63537;DHT22;49686;51.880;5.632;2023-04-01T13:38:48;9.90;99.90
63537;DHT22;49686;51.880;5.632;2023-04-01T13:41:25;9.80;99.90
63537;DHT22;49686;51.880;5.632;2023-04-01T13:44:00;10.00;99.90
63537;DHT22;49686;51.880;5.632;2023-04-01T13:46:43;9.60;99.90
63537;DHT22;49686;51.880;5.632;2023-04-01T13:49:24;9.70;99.90
63537;DHT22;49686;51.880;5.632;2023-04-01T13:52:10;9.60;99.90
63537;DHT22;49686;51.880;5.632;2023-04-01T13:55:11;9.60;99.90
63537;DHT22;49686;51.880;5.632;2023-04-01T13:57:57;9.50;99.90
63537;DHT22;49686;51.880;5.632;2023-04-01T14:00:35;9.30;99.90
63537;DHT22;49686;51.880;5.632;2023-04-01T14:03:19;9.10;99.90
63537;DHT22;49686;51.880;5.632;2023-04-01T14:06:00;9.20;99.90
63537;DHT22;49686;51.880;5.632;2023-04-01T14:08:36;9.10;99.90
63537;DHT22;49686;51.880;5.632;2023-04-01T14:11:17;9.10;99.90
63537;DHT22;49686;51.880;5.632;2023-04-01T14:13:56;9.00;99.90
63537;DHT22;49686;51.880;5.632;2023-04-01T14:16:59;9.00;99.90
63537;DHT22;49686;51.880;5.632;2023-04-01T14:19:57;9.00;99.90
63537;DHT22;49686;51.880;5.632;2023-04-01T14:22:34;9.00;99.90
63537;DHT22;49686;51.880;5.632;2023-04-01T14:25:30;8.90;99.90
63537;DHT22;49686;51.880;5.632;2023-04-01T14:28:12;9.00;99.90
63537;DHT22;49686;51.880;5.632;2023-04-01T14:30:51;8.90;99.90
63537;DHT22;49686;51.880;5.632;2023-04-01T14:33:30;8.80;99.90
63537;DHT22;49686;51.880;5.632;2023-04-01T14:36:16;8.70;99.90
63537;DHT22;49686;51.880;5.632;2023-04-01T14:38:54;8.50;99.90
63537;DHT22;49686;51.880;5.632;2023-04-01T14:41:35;8.50;99.90
63537;DHT22;49686;51.880;5.632;2023-04-01T14:44:48;8.40;99.90
63537;DHT22;49686;51.880;5.632;2023-04-01T14:47:28;8.30;99.90
63537;DHT22;49686;51.880;5.632;2023-04-01T14:50:05;8.30;99.90
63537;DHT22;49686;51.880;5.632;2023-04-01T14:52:35;8.30;99.90
63537;DHT22;49686;51.880;5.632;2023-04-01T14:55:18;8.30;99.90
63537;DHT22;49686;51.880;5.632;2023-04-01T14:57:58;8.30;99.90
63537;DHT22;49686;51.880;5.632;2023-04-01T15:00:27;8.30;99.90
63537;DHT22;49686;51.880;5.632;2023-04-01T15:03:02;8.30;99.90
63537;DHT22;49686;51.880;5.632;2023-04-01T15:05:43;8.40;99.90
63537;DHT22;49686;51.880;5.632;2023-04-01T15:08:17;8.40;99.90
63537;DHT22;49686;51.880;5.632;2023-04-01T15:14:07;8.40;99.90
63537;DHT22;49686;51.880;5.632;2023-04-01T15:16:39;8.40;99.90
63537;DHT22;49686;51.880;5.632;2023-04-01T15:19:16;8.50;99.90
63537;DHT22;49686;51.880;5.632;2023-04-01T15:22:01;8.60;99.90
63537;DHT22;49686;51.880;5.632;2023-04-01T15:24:42;8.50;99.90
63537;DHT22;49686;51.880;5.632;2023-04-01T15:27:28;8.60;99.90
63537;DHT22;49686;51.880;5.632;2023-04-01T15:33:15;8.60;99.90
63537;DHT22;49686;51.880;5.632;2023-04-01T15:35:47;8.50;99.90
63537;DHT22;49686;51.880;5.632;2023-04-01T15:38:25;8.60;99.90
63537;DHT22;49686;51.880;5.632;2023-04-01T15:40:57;8.60;99.90
63537;DHT22;49686;51.880;5.632;2023-04-01T15:43:33;8.60;99.90
63537;DHT22;49686;51.880;5.632;2023-04-01T15:46:14;8.60;99.90
63537;DHT22;49686;51.880;5.632;2023-04-01T15:48:55;8.60;99.90
63537;DHT22;49686;51.880;5.632;2023-04-01T15:51:41;8.70;99.90
63537;DHT22;49686;51.880;5.632;2023-04-01T15:54:27;8.70;99.90
63537;DHT22;49686;51.880;5.632;2023-04-01T15:57:14;8.70;99.90
63537;DHT22;49686;51.880;5.632;2023-04-01T16:02:39;8.70;99.90
63537;DHT22;49686;51.880;5.632;2023-04-01T16:05:24;8.60;99.90
63537;DHT22;49686;51.880;5.632;2023-04-01T16:08:02;8.70;99.90
63537;DHT22;49686;51.880;5.632;2023-04-01T16:10:49;8.60;99.90
63537;DHT22;49686;51.880;5.632;2023-04-01T16:13:26;8.50;99.90
63537;DHT22;49686;51.880;5.632;2023-04-01T16:16:00;8.40;99.90
63537;DHT22;49686;51.880;5.632;2023-04-01T16:18:45;8.40;99.90
63537;DHT22;49686;51.880;5.632;2023-04-01T16:21:32;8.40;99.90
63537;DHT22;49686;51.880;5.632;2023-04-01T16:24:05;8.40;99.90
63537;DHT22;49686;51.880;5.632;2023-04-01T16:26:40;8.40;99.90
63537;DHT22;49686;51.880;5.632;2023-04-01T16:29:12;8.40;99.90
63537;DHT22;49686;51.880;5.632;2023-04-01T16:31:48;8.40;99.90
63537;DHT22;49686;51.880;5.632;2023-04-01T16:34:21;8.30;99.90
63537;DHT22;49686;51.880;5.632;2023-04-01T16:36:54;8.30;99.90
63537;DHT22;49686;51.880;5.632;2023-04-01T16:39:30;8.40;99.90
63537;DHT22;49686;51.880;5.632;2023-04-01T16:42:17;8.30;99.90
63537;DHT22;49686;51.880;5.632;2023-04-01T16:44:50;8.30;99.90
63537;DHT22;49686;51.880;5.632;2023-04-01T16:47:28;8.30;99.90
63537;DHT22;49686;51.880;5.632;2023-04-01T16:49:59;8.20;99.90
63537;DHT22;49686;51.880;5.632;2023-04-01T16:52:40;8.30;99.90
63537;DHT22;49686;51.880;5.632;2023-04-01T16:55:15;8.30;99.90
63537;DHT22;49686;51.880;5.632;2023-04-01T16:57:48;8.20;99.90
63537;DHT22;49686;51.880;5.632;2023-04-01T17:00:23;8.20;99.90
63537;DHT22;49686;51.880;5.632;2023-04-01T17:03:01;8.20;99.90
63537;DHT22;49686;51.880;5.632;2023-04-01T17:05:42;8.20;99.90
63537;DHT22;49686;51.880;5.632;2023-04-01T17:08:21;8.20;99.90
63537;DHT22;49686;51.880;5.632;2023-04-01T17:10:55;8.20;99.90
63537;DHT22;49686;51.880;5.632;2023-04-01T17:13:37;8.20;99.90
63537;DHT22;49686;51.880;5.632;2023-04-01T17:16:26;8.20;99.90
63537;DHT22;49686;51.880;5.632;2023-04-01T17:19:01;8.10;99.90
63537;DHT22;49686;51.880;5.632;2023-04-01T17:21:45;8.10;99.90
63537;DHT22;49686;51.880;5.632;2023-04-01T17:24:30;8.00;99.90
63537;DHT22;49686;51.880;5.632;2023-04-01T17:27:05;8.00;99.90
63537;DHT22;49686;51.880;5.632;2023-04-01T17:29:59;7.90;99.90
63537;DHT22;49686;51.880;5.632;2023-04-01T17:32:38;7.90;99.90
63537;DHT22;49686;51.880;5.632;2023-04-01T17:35:13;7.90;99.90
63537;DHT22;49686;51.880;5.632;2023-04-01T17:37:52;7.90;99.90
63537;DHT22;49686;51.880;5.632;2023-04-01T17:40:41;7.90;99.90
63537;DHT22;49686;51.880;5.632;2023-04-01T17:43:18;7.90;99.90